sensor_id;sensor_type;location;lat;lon;timestamp;temperature;humidity
4058;DHT22;2044;48.692;9.020;2022-11-20T00:01:18;3.30;99.90
4058;DHT22;2044;48.692;9.020;2022-11-20T00:03:45;3.20;99.90
4058;DHT22;2044;48.692;9.020;2022-11-20T00:06:15;3.20;99.90
4058;DHT22;2044;48.692;9.020;2022-11-20T00:08:42;3.20;99.90
4058;DHT22;2044;48.692;9.020;2022-11-20T00:11:10;3.20;99.90
4058;DHT22;2044;48.692;9.020;2022-11-20T00:13:38;3.10;99.90
4058;DHT22;2044;48.692;9.020;2022-11-20T00:16:08;3.10;99.90
4058;DHT22;2044;48.692;9.020;2022-11-20T00:18:36;3.10;99.90
4058;DHT22;2044;48.692;9.020;2022-11-20T00:21:04;3.10;99.90
4058;DHT22;2044;48.692;9.020;2022-11-20T00:23:33;3.00;99.90
4058;DHT22;2044;48.692;9.020;2022-11-20T00:26:02;3.00;99.90
4058;DHT22;2044;48.692;9.020;2022-11-20T00:28:29;3.00;99.90
4058;DHT22;2044;48.692;9.020;2022-11-20T00:31:01;3.00;99.90
4058;DHT22;2044;48.692;9.020;2022-11-20T00:33:28;3.00;99.90
4058;DHT22;2044;48.692;9.020;2022-11-20T00:35:59;3.00;99.90
4058;DHT22;2044;48.692;9.020;2022-11-20T00:38:26;3.10;99.90
4058;DHT22;2044;48.692;9.020;2022-11-20T00:40:56;3.10;99.90
4058;DHT22;2044;48.692;9.020;2022-11-20T00:43:23;3.20;99.90
4058;DHT22;2044;48.692;9.020;2022-11-20T00:45:50;3.10;99.90
4058;DHT22;2044;48.692;9.020;2022-11-20T00:48:16;3.10;99.90
4058;DHT22;2044;48.692;9.020;2022-11-20T00:50:43;3.00;99.90
4058;DHT22;2044;48.692;9.020;2022-11-20T00:53:10;2.90;99.90
4058;DHT22;2044;48.692;9.020;2022-11-20T00:55:37;2.90;99.90
4058;DHT22;2044;48.692;9.020;2022-11-20T00:58:05;2.90;99.90
4058;DHT22;2044;48.692;9.020;2022-11-20T01:00:32;2.90;99.90
4058;DHT22;2044;48.692;9.020;2022-11-20T01:02:58;2.90;99.90
4058;DHT22;2044;48.692;9.020;2022-11-20T01:05:25;2.80;99.90
4058;DHT22;2044;48.692;9.020;2022-11-20T01:07:52;2.80;99.90
4058;DHT22;2044;48.692;9.020;2022-11-20T01:10:18;2.70;99.90
4058;DHT22;2044;48.692;9.020;2022-11-20T01:12:45;2.50;99.90
4058;DHT22;2044;48.692;9.020;2022-11-20T01:15:35;2.30;99.90
4058;DHT22;2044;48.692;9.020;2022-11-20T01:18:02;2.30;99.90
4058;DHT22;2044;48.692;9.020;2022-11-20T01:20:29;2.30;99.90
4058;DHT22;2044;48.692;9.020;2022-11-20T01:22:55;2.20;99.90
4058;DHT22;2044;48.692;9.020;2022-11-20T01:25:22;2.20;99.90
4058;DHT22;2044;48.692;9.020;2022-11-20T01:27:49;2.30;99.90
4058;DHT22;2044;48.692;9.020;2022-11-20T01:30:16;2.30;99.90
4058;DHT22;2044;48.692;9.020;2022-11-20T01:35:11;2.60;99.90
4058;DHT22;2044;48.692;9.020;2022-11-20T01:37:38;2.60;99.90
4058;DHT22;2044;48.692;9.020;2022-11-20T01:40:05;2.60;99.90
4058;DHT22;2044;48.692;9.020;2022-11-20T01:42:32;2.50;99.90
4058;DHT22;2044;48.692;9.020;2022-11-20T01:46:00;2.70;99.90
4058;DHT22;2044;48.692;9.020;2022-11-20T01:48:33;2.70;99.90
4058;DHT22;2044;48.692;9.020;2022-11-20T01:51:03;2.70;99.90
4058;DHT22;2044;48.692;9.020;2022-11-20T01:53:33;2.60;99.90
4058;DHT22;2044;48.692;9.020;2022-11-20T01:56:03;2.60;99.90
4058;DHT22;2044;48.692;9.020;2022-11-20T01:58:34;2.70;99.90
4058;DHT22;2044;48.692;9.020;2022-11-20T02:01:03;2.60;99.90
4058;DHT22;2044;48.692;9.020;2022-11-20T02:03:32;2.70;99.90
4058;DHT22;2044;48.692;9.020;2022-11-20T02:06:04;2.70;99.90
4058;DHT22;2044;48.692;9.020;2022-11-20T02:08:34;2.50;99.90
4058;DHT22;2044;48.692;9.020;2022-11-20T02:11:01;2.50;99.90
4058;DHT22;2044;48.692;9.020;2022-11-20T02:13:28;2.50;99.90
4058;DHT22;2044;48.692;9.020;2022-11-20T02:16:15;2.50;99.90
4058;DHT22;2044;48.692;9.020;2022-11-20T02:22:10;2.50;99.90
4058;DHT22;2044;48.692;9.020;2022-11-20T02:24:41;2.60;99.90
4058;DHT22;2044;48.692;9.020;2022-11-20T02:27:12;2.60;99.90
4058;DHT22;2044;48.692;9.020;2022-11-20T02:29:42;2.70;99.90
4058;DHT22;2044;48.692;9.020;2022-11-20T02:32:18;2.80;99.90
4058;DHT22;2044;48.692;9.020;2022-11-20T02:34:45;3.00;99.90
4058;DHT22;2044;48.692;9.020;2022-11-20T02:37:12;3.10;99.90
4058;DHT22;2044;48.692;9.020;2022-11-20T02:39:42;3.10;99.90
4058;DHT22;2044;48.692;9.020;2022-11-20T02:42:09;3.20;99.90
4058;DHT22;2044;48.692;9.020;2022-11-20T02:44:36;3.20;99.90
4058;DHT22;2044;48.692;9.020;2022-11-20T02:47:03;3.30;99.90
4058;DHT22;2044;48.692;9.020;2022-11-20T02:49:29;3.30;99.90
4058;DHT22;2044;48.692;9.020;2022-11-20T02:51:56;3.30;99.90
4058;DHT22;2044;48.692;9.020;2022-11-20T02:54:24;3.30;99.90
4058;DHT22;2044;48.692;9.020;2022-11-20T02:56:52;3.30;99.90
4058;DHT22;2044;48.692;9.020;2022-11-20T02:59:19;3.30;99.90
4058;DHT22;2044;48.692;9.020;2022-11-20T03:01:46;3.30;99.90
4058;DHT22;2044;48.692;9.020;2022-11-20T03:04:12;3.40;99.90
4058;DHT22;2044;48.692;9.020;2022-11-20T03:06:39;3.30;99.90
4058;DHT22;2044;48.692;9.020;2022-11-20T03:09:06;3.20;99.90
4058;DHT22;2044;48.692;9.020;2022-11-20T03:11:33;3.20;99.90
4058;DHT22;2044;48.692;9.020;2022-11-20T03:14:02;3.20;99.90
4058;DHT22;2044;48.692;9.020;2022-11-20T03:16:30;3.10;99.90
4058;DHT22;2044;48.692;9.020;2022-11-20T03:18:57;3.00;99.90
4058;DHT22;2044;48.692;9.020;2022-11-20T03:21:24;3.00;99.90
4058;DHT22;2044;48.692;9.020;2022-11-20T03:23:51;2.80;99.90
4058;DHT22;2044;48.692;9.020;2022-11-20T03:26:21;2.80;99.90
4058;DHT22;2044;48.692;9.020;2022-11-20T03:28:50;2.80;99.90
4058;DHT22;2044;48.692;9.020;2022-11-20T03:31:20;2.70;99.90
4058;DHT22;2044;48.692;9.020;2022-11-20T03:33:47;2.60;99.90
4058;DHT22;2044;48.692;9.020;2022-11-20T03:36:15;2.50;99.90
4058;DHT22;2044;48.692;9.020;2022-11-20T03:38:42;2.50;99.90
4058;DHT22;2044;48.692;9.020;2022-11-20T03:41:11;2.40;99.90
4058;DHT22;2044;48.692;9.020;2022-11-20T03:43:38;2.40;99.90
4058;DHT22;2044;48.692;9.020;2022-11-20T03:46:06;2.30;99.90
4058;DHT22;2044;48.692;9.020;2022-11-20T03:48:34;2.30;99.90
4058;DHT22;2044;48.692;9.020;2022-11-20T03:51:09;2.40;99.90
4058;DHT22;2044;48.692;9.020;2022-11-20T03:53:36;2.30;99.90
4058;DHT22;2044;48.692;9.020;2022-11-20T03:56:03;2.30;99.90
4058;DHT22;2044;48.692;9.020;2022-11-20T03:58:30;2.30;99.90
4058;DHT22;2044;48.692;9.020;2022-11-20T04:00:57;2.30;99.90
4058;DHT22;2044;48.692;9.020;2022-11-20T04:03:23;2.40;99.90
4058;DHT22;2044;48.692;9.020;2022-11-20T04:05:51;2.30;99.90
4058;DHT22;2044;48.692;9.020;2022-11-20T04:08:18;2.50;99.90
4058;DHT22;2044;48.692;9.020;2022-11-20T04:10:45;2.60;99.90
4058;DHT22;2044;48.692;9.020;2022-11-20T04:13:12;2.50;99.90
4058;DHT22;2044;48.692;9.020;2022-11-20T04:15:38;2.60;99.90
4058;DHT22;2044;48.692;9.020;2022-11-20T04:18:05;2.70;99.90
4058;DHT22;2044;48.692;9.020;2022-11-20T04:20:32;2.70;99.90
4058;DHT22;2044;48.692;9.020;2022-11-20T04:25:27;2.90;99.90
4058;DHT22;2044;48.692;9.020;2022-11-20T04:27:54;2.90;99.90
4058;DHT22;2044;48.692;9.020;2022-11-20T04:30:21;2.90;99.90
4058;DHT22;2044;48.692;9.020;2022-11-20T04:35:15;3.00;99.90
4058;DHT22;2044;48.692;9.020;2022-11-20T04:37:42;3.10;99.90
4058;DHT22;2044;48.692;9.020;2022-11-20T04:40:11;3.00;99.90
4058;DHT22;2044;48.692;9.020;2022-11-20T04:42:38;3.10;99.90
4058;DHT22;2044;48.692;9.020;2022-11-20T04:45:05;3.20;99.90
4058;DHT22;2044;48.692;9.020;2022-11-20T04:49:59;3.30;99.90
4058;DHT22;2044;48.692;9.020;2022-11-20T04:52:26;3.40;99.90
4058;DHT22;2044;48.692;9.020;2022-11-20T04:54:52;3.40;99.90
4058;DHT22;2044;48.692;9.020;2022-11-20T04:57:21;3.40;99.90
4058;DHT22;2044;48.692;9.020;2022-11-20T04:59:48;3.50;99.90
4058;DHT22;2044;48.692;9.020;2022-11-20T05:04:41;3.50;99.90
4058;DHT22;2044;48.692;9.020;2022-11-20T05:07:08;3.50;99.90
4058;DHT22;2044;48.692;9.020;2022-11-20T05:12:02;3.50;99.90
4058;DHT22;2044;48.692;9.020;2022-11-20T05:14:30;3.50;99.90
4058;DHT22;2044;48.692;9.020;2022-11-20T05:19:24;3.60;99.90
4058;DHT22;2044;48.692;9.020;2022-11-20T05:21:51;3.60;99.90
4058;DHT22;2044;48.692;9.020;2022-11-20T05:24:17;3.60;99.90
4058;DHT22;2044;48.692;9.020;2022-11-20T05:26:44;3.60;99.90
4058;DHT22;2044;48.692;9.020;2022-11-20T05:29:11;3.60;99.90
4058;DHT22;2044;48.692;9.020;2022-11-20T05:31:40;3.70;99.90
4058;DHT22;2044;48.692;9.020;2022-11-20T05:34:07;3.70;99.90
4058;DHT22;2044;48.692;9.020;2022-11-20T05:36:34;3.70;99.90
4058;DHT22;2044;48.692;9.020;2022-11-20T05:39:01;3.70;99.90
4058;DHT22;2044;48.692;9.020;2022-11-20T05:43:56;3.70;99.90
4058;DHT22;2044;48.692;9.020;2022-11-20T05:46:23;3.60;99.90
4058;DHT22;2044;48.692;9.020;2022-11-20T05:48:51;5.90;99.90
4058;DHT22;2044;48.692;9.020;2022-11-20T05:51:19;3.80;99.90
4058;DHT22;2044;48.692;9.020;2022-11-20T05:53:46;3.80;99.90
4058;DHT22;2044;48.692;9.020;2022-11-20T05:56:14;3.70;99.90
4058;DHT22;2044;48.692;9.020;2022-11-20T06:01:10;3.80;99.90
4058;DHT22;2044;48.692;9.020;2022-11-20T06:03:39;3.80;99.90
4058;DHT22;2044;48.692;9.020;2022-11-20T06:06:09;3.80;99.90
4058;DHT22;2044;48.692;9.020;2022-11-20T06:11:04;3.80;99.90
4058;DHT22;2044;48.692;9.020;2022-11-20T06:13:31;3.70;99.90
4058;DHT22;2044;48.692;9.020;2022-11-20T06:15:58;3.80;99.90
4058;DHT22;2044;48.692;9.020;2022-11-20T06:18:26;3.80;99.90
4058;DHT22;2044;48.692;9.020;2022-11-20T06:21:00;3.70;99.90
4058;DHT22;2044;48.692;9.020;2022-11-20T06:23:29;3.80;99.90
4058;DHT22;2044;48.692;9.020;2022-11-20T06:38:12;3.80;99.90
4058;DHT22;2044;48.692;9.020;2022-11-20T06:40:41;3.90;99.90
4058;DHT22;2044;48.692;9.020;2022-11-20T06:43:08;3.90;98.10
4058;DHT22;2044;48.692;9.020;2022-11-20T06:48:02;3.90;95.20
4058;DHT22;2044;48.692;9.020;2022-11-20T06:52:56;3.90;92.80
4058;DHT22;2044;48.692;9.020;2022-11-20T06:55:26;4.10;99.90
4058;DHT22;2044;48.692;9.020;2022-11-20T07:05:15;4.00;69.90
4058;DHT22;2044;48.692;9.020;2022-11-20T07:10:10;4.00;41.20
4058;DHT22;2044;48.692;9.020;2022-11-20T07:17:33;4.10;46.40
4058;DHT22;2044;48.692;9.020;2022-11-20T07:22:27;4.10;52.70
4058;DHT22;2044;48.692;9.020;2022-11-20T07:24:54;4.10;54.20
4058;DHT22;2044;48.692;9.020;2022-11-20T07:29:47;4.00;79.50
4058;DHT22;2044;48.692;9.020;2022-11-20T07:32:15;4.00;93.50
4058;DHT22;2044;48.692;9.020;2022-11-20T07:34:42;4.10;99.90
4058;DHT22;2044;48.692;9.020;2022-11-20T07:37:09;4.10;99.90
4058;DHT22;2044;48.692;9.020;2022-11-20T07:39:36;4.20;92.80
4058;DHT22;2044;48.692;9.020;2022-11-20T07:42:06;4.40;53.20
4058;DHT22;2044;48.692;9.020;2022-11-20T07:47:00;4.80;45.20
4058;DHT22;2044;48.692;9.020;2022-11-20T08:12:44;5.10;1.00
4058;DHT22;2044;48.692;9.020;2022-11-20T08:15:29;5.10;1.00
4058;DHT22;2044;48.692;9.020;2022-11-20T08:18:00;4.90;1.00
4058;DHT22;2044;48.692;9.020;2022-11-20T08:20:28;5.00;26.60
4058;DHT22;2044;48.692;9.020;2022-11-20T08:22:58;5.00;28.30
4058;DHT22;2044;48.692;9.020;2022-11-20T08:25:25;4.90;62.10
4058;DHT22;2044;48.692;9.020;2022-11-20T08:35:13;4.90;99.90
4058;DHT22;2044;48.692;9.020;2022-11-20T08:37:41;5.00;99.90
4058;DHT22;2044;48.692;9.020;2022-11-20T08:40:10;5.00;99.90
4058;DHT22;2044;48.692;9.020;2022-11-20T08:45:05;5.10;29.90
4058;DHT22;2044;48.692;9.020;2022-11-20T08:47:32;5.10;23.90
4058;DHT22;2044;48.692;9.020;2022-11-20T08:52:26;5.20;1.00
4058;DHT22;2044;48.692;9.020;2022-11-20T08:54:54;5.20;5.90
4058;DHT22;2044;48.692;9.020;2022-11-20T08:57:21;5.40;1.00
4058;DHT22;2044;48.692;9.020;2022-11-20T09:07:10;5.60;1.00
4058;DHT22;2044;48.692;9.020;2022-11-20T09:09:36;5.60;1.00
4058;DHT22;2044;48.692;9.020;2022-11-20T09:12:05;5.60;1.00
4058;DHT22;2044;48.692;9.020;2022-11-20T09:14:31;5.40;1.00
4058;DHT22;2044;48.692;9.020;2022-11-20T09:19:26;5.50;1.00
4058;DHT22;2044;48.692;9.020;2022-11-20T09:24:20;5.60;25.50
4058;DHT22;2044;48.692;9.020;2022-11-20T09:29:15;5.10;27.00
4058;DHT22;2044;48.692;9.020;2022-11-20T09:41:45;5.30;1.00
4058;DHT22;2044;48.692;9.020;2022-11-20T09:44:33;5.30;1.00
4058;DHT22;2044;48.692;9.020;2022-11-20T09:47:12;5.40;1.00
4058;DHT22;2044;48.692;9.020;2022-11-20T09:49:59;5.40;1.00
4058;DHT22;2044;48.692;9.020;2022-11-20T10:02:37;5.20;1.00
4058;DHT22;2044;48.692;9.020;2022-11-20T10:40:54;5.30;99.90
4058;DHT22;2044;48.692;9.020;2022-11-20T10:44:03;5.20;99.90
4058;DHT22;2044;48.692;9.020;2022-11-20T11:32:04;6.30;99.90
4058;DHT22;2044;48.692;9.020;2022-11-20T11:44:24;8.50;1.00
4058;DHT22;2044;48.692;9.020;2022-11-20T11:47:19;8.70;92.10
4058;DHT22;2044;48.692;9.020;2022-11-20T11:52:17;9.00;66.50
4058;DHT22;2044;48.692;9.020;2022-11-20T11:57:22;9.30;99.90
4058;DHT22;2044;48.692;9.020;2022-11-20T12:04:59;9.20;1.00
4058;DHT22;2044;48.692;9.020;2022-11-20T12:07:37;10.00;1.00
4058;DHT22;2044;48.692;9.020;2022-11-20T12:30:08;7.50;99.90
4058;DHT22;2044;48.692;9.020;2022-11-20T12:32:48;7.40;99.90
4058;DHT22;2044;48.692;9.020;2022-11-20T12:35:32;7.30;99.90
4058;DHT22;2044;48.692;9.020;2022-11-20T12:38:26;7.40;1.00
4058;DHT22;2044;48.692;9.020;2022-11-20T12:41:03;8.00;99.90
4058;DHT22;2044;48.692;9.020;2022-11-20T12:43:34;9.10;1.00
4058;DHT22;2044;48.692;9.020;2022-11-20T12:46:27;9.10;99.90
4058;DHT22;2044;48.692;9.020;2022-11-20T12:49:07;8.50;1.00
4058;DHT22;2044;48.692;9.020;2022-11-20T12:51:48;7.90;1.00
4058;DHT22;2044;48.692;9.020;2022-11-20T12:54:42;8.10;1.00
4058;DHT22;2044;48.692;9.020;2022-11-20T12:57:18;8.10;99.90
4058;DHT22;2044;48.692;9.020;2022-11-20T13:00:00;8.20;1.00
4058;DHT22;2044;48.692;9.020;2022-11-20T13:02:33;8.10;1.00
4058;DHT22;2044;48.692;9.020;2022-11-20T13:05:18;8.20;1.00
4058;DHT22;2044;48.692;9.020;2022-11-20T13:07:46;8.40;1.00
4058;DHT22;2044;48.692;9.020;2022-11-20T13:10:22;8.50;1.00
4058;DHT22;2044;48.692;9.020;2022-11-20T13:12:54;8.80;8.90
4058;DHT22;2044;48.692;9.020;2022-11-20T13:15:41;8.70;1.00
4058;DHT22;2044;48.692;9.020;2022-11-20T13:18:11;8.90;99.90
4058;DHT22;2044;48.692;9.020;2022-11-20T13:20:44;9.00;99.90
4058;DHT22;2044;48.692;9.020;2022-11-20T13:23:11;8.20;99.90
4058;DHT22;2044;48.692;9.020;2022-11-20T13:25:48;8.20;99.90
4058;DHT22;2044;48.692;9.020;2022-11-20T13:28:29;7.90;1.00
4058;DHT22;2044;48.692;9.020;2022-11-20T13:30:57;8.00;1.00
4058;DHT22;2044;48.692;9.020;2022-11-20T13:33:28;7.60;99.90
4058;DHT22;2044;48.692;9.020;2022-11-20T13:35:59;7.60;1.00
4058;DHT22;2044;48.692;9.020;2022-11-20T13:38:26;7.30;73.50
4058;DHT22;2044;48.692;9.020;2022-11-20T13:40:54;7.30;99.90
4058;DHT22;2044;48.692;9.020;2022-11-20T13:43:26;7.20;99.90
4058;DHT22;2044;48.692;9.020;2022-11-20T13:45:56;7.10;1.00
4058;DHT22;2044;48.692;9.020;2022-11-20T13:48:25;6.90;99.90
4058;DHT22;2044;48.692;9.020;2022-11-20T13:51:02;6.80;99.90
4058;DHT22;2044;48.692;9.020;2022-11-20T13:53:48;6.60;1.00
4058;DHT22;2044;48.692;9.020;2022-11-20T13:56:24;6.60;99.80
4058;DHT22;2044;48.692;9.020;2022-11-20T13:59:06;6.70;1.00
4058;DHT22;2044;48.692;9.020;2022-11-20T14:04:07;6.40;5.60
4058;DHT22;2044;48.692;9.020;2022-11-20T14:06:41;6.30;99.90
4058;DHT22;2044;48.692;9.020;2022-11-20T14:09:11;6.20;99.90
4058;DHT22;2044;48.692;9.020;2022-11-20T14:11:46;6.10;47.70
4058;DHT22;2044;48.692;9.020;2022-11-20T14:14:16;6.00;99.90
4058;DHT22;2044;48.692;9.020;2022-11-20T14:19:36;6.00;1.00
4058;DHT22;2044;48.692;9.020;2022-11-20T14:22:15;6.00;60.10
4058;DHT22;2044;48.692;9.020;2022-11-20T14:24:43;6.00;99.90
4058;DHT22;2044;48.692;9.020;2022-11-20T14:27:13;6.00;99.90
4058;DHT22;2044;48.692;9.020;2022-11-20T14:29:41;6.00;1.00
4058;DHT22;2044;48.692;9.020;2022-11-20T14:32:09;6.00;84.60
4058;DHT22;2044;48.692;9.020;2022-11-20T14:34:39;6.00;1.00
4058;DHT22;2044;48.692;9.020;2022-11-20T14:37:12;6.00;1.00
4058;DHT22;2044;48.692;9.020;2022-11-20T14:39:47;8.60;1.00
4058;DHT22;2044;48.692;9.020;2022-11-20T14:42:15;5.90;1.00
4058;DHT22;2044;48.692;9.020;2022-11-20T14:47:17;5.90;64.40
4058;DHT22;2044;48.692;9.020;2022-11-20T14:52:16;5.80;99.90
4058;DHT22;2044;48.692;9.020;2022-11-20T14:54:45;5.80;99.90
4058;DHT22;2044;48.692;9.020;2022-11-20T14:57:24;5.80;99.90
4058;DHT22;2044;48.692;9.020;2022-11-20T15:00:03;5.80;99.90
4058;DHT22;2044;48.692;9.020;2022-11-20T15:04:59;5.50;99.90
4058;DHT22;2044;48.692;9.020;2022-11-20T15:07:31;5.50;99.90
4058;DHT22;2044;48.692;9.020;2022-11-20T15:10:00;5.50;99.90
4058;DHT22;2044;48.692;9.020;2022-11-20T15:12:30;5.40;1.00
4058;DHT22;2044;48.692;9.020;2022-11-20T15:14:57;5.30;1.00
4058;DHT22;2044;48.692;9.020;2022-11-20T15:17:24;5.20;1.00
4058;DHT22;2044;48.692;9.020;2022-11-20T15:19:52;5.10;1.00
4058;DHT22;2044;48.692;9.020;2022-11-20T15:22:19;5.10;1.00
4058;DHT22;2044;48.692;9.020;2022-11-20T15:24:47;5.00;16.00
4058;DHT22;2044;48.692;9.020;2022-11-20T15:27:14;5.00;46.10
4058;DHT22;2044;48.692;9.020;2022-11-20T15:29:41;4.90;99.90
4058;DHT22;2044;48.692;9.020;2022-11-20T15:34:35;5.00;99.90
4058;DHT22;2044;48.692;9.020;2022-11-20T15:39:29;4.90;99.90
4058;DHT22;2044;48.692;9.020;2022-11-20T15:41:57;4.80;99.90
4058;DHT22;2044;48.692;9.020;2022-11-20T15:49:18;4.80;99.90
4058;DHT22;2044;48.692;9.020;2022-11-20T15:51:48;4.80;99.90
4058;DHT22;2044;48.692;9.020;2022-11-20T15:54:16;4.80;1.00
4058;DHT22;2044;48.692;9.020;2022-11-20T15:56:45;4.70;1.00
4058;DHT22;2044;48.692;9.020;2022-11-20T15:59:13;4.80;1.00
4058;DHT22;2044;48.692;9.020;2022-11-20T16:01:41;4.80;1.00
4058;DHT22;2044;48.692;9.020;2022-11-20T16:04:10;4.80;1.00
4058;DHT22;2044;48.692;9.020;2022-11-20T16:06:37;4.90;1.00
4058;DHT22;2044;48.692;9.020;2022-11-20T16:09:04;4.80;1.00
4058;DHT22;2044;48.692;9.020;2022-11-20T16:11:30;4.90;1.00
4058;DHT22;2044;48.692;9.020;2022-11-20T16:13:57;4.80;1.00
4058;DHT22;2044;48.692;9.020;2022-11-20T16:16:43;5.00;1.00
4058;DHT22;2044;48.692;9.020;2022-11-20T16:19:10;4.90;1.00
4058;DHT22;2044;48.692;9.020;2022-11-20T16:21:38;5.00;1.00
4058;DHT22;2044;48.692;9.020;2022-11-20T16:24:08;4.90;1.00
4058;DHT22;2044;48.692;9.020;2022-11-20T16:26:36;4.90;1.00
4058;DHT22;2044;48.692;9.020;2022-11-20T16:29:04;5.00;1.00
4058;DHT22;2044;48.692;9.020;2022-11-20T16:34:01;5.00;1.00
4058;DHT22;2044;48.692;9.020;2022-11-20T16:38:58;5.10;1.00
4058;DHT22;2044;48.692;9.020;2022-11-20T16:41:26;5.10;1.00
4058;DHT22;2044;48.692;9.020;2022-11-20T16:43:54;5.10;1.00
4058;DHT22;2044;48.692;9.020;2022-11-20T16:46:24;5.10;1.00
4058;DHT22;2044;48.692;9.020;2022-11-20T16:48:55;5.10;99.90
4058;DHT22;2044;48.692;9.020;2022-11-20T16:51:24;5.20;99.90
4058;DHT22;2044;48.692;9.020;2022-11-20T16:53:51;5.10;99.90
4058;DHT22;2044;48.692;9.020;2022-11-20T16:56:22;5.20;99.90
4058;DHT22;2044;48.692;9.020;2022-11-20T16:58:50;5.20;99.90
4058;DHT22;2044;48.692;9.020;2022-11-20T17:01:18;5.20;99.90
4058;DHT22;2044;48.692;9.020;2022-11-20T17:03:52;5.20;99.90
4058;DHT22;2044;48.692;9.020;2022-11-20T17:06:20;5.10;99.90
4058;DHT22;2044;48.692;9.020;2022-11-20T17:08:48;5.10;99.90
4058;DHT22;2044;48.692;9.020;2022-11-20T17:11:17;5.20;99.90
4058;DHT22;2044;48.692;9.020;2022-11-20T17:13:45;5.10;99.90
4058;DHT22;2044;48.692;9.020;2022-11-20T17:16:13;5.20;99.90
4058;DHT22;2044;48.692;9.020;2022-11-20T17:18:40;6.10;99.90
4058;DHT22;2044;48.692;9.020;2022-11-20T17:21:07;5.10;99.90
4058;DHT22;2044;48.692;9.020;2022-11-20T17:23:35;5.10;24.00
4058;DHT22;2044;48.692;9.020;2022-11-20T17:26:05;5.10;51.80
4058;DHT22;2044;48.692;9.020;2022-11-20T17:28:32;5.20;1.00
4058;DHT22;2044;48.692;9.020;2022-11-20T17:31:00;5.10;63.20
4058;DHT22;2044;48.692;9.020;2022-11-20T17:33:27;5.10;2.60
4058;DHT22;2044;48.692;9.020;2022-11-20T17:35:54;5.10;1.00
4058;DHT22;2044;48.692;9.020;2022-11-20T17:38:21;5.20;1.00
4058;DHT22;2044;48.692;9.020;2022-11-20T17:40:48;5.10;1.00
4058;DHT22;2044;48.692;9.020;2022-11-20T17:43:16;5.20;99.90
4058;DHT22;2044;48.692;9.020;2022-11-20T17:45:43;5.20;99.90
4058;DHT22;2044;48.692;9.020;2022-11-20T17:48:10;5.20;99.90
4058;DHT22;2044;48.692;9.020;2022-11-20T17:50:37;5.20;99.90
4058;DHT22;2044;48.692;9.020;2022-11-20T17:55:32;5.20;99.90
4058;DHT22;2044;48.692;9.020;2022-11-20T17:58:20;6.00;99.90
4058;DHT22;2044;48.692;9.020;2022-11-20T18:03:13;5.20;99.90
4058;DHT22;2044;48.692;9.020;2022-11-20T18:05:39;5.20;99.90
4058;DHT22;2044;48.692;9.020;2022-11-20T18:10:33;5.20;99.90
4058;DHT22;2044;48.692;9.020;2022-11-20T18:13:00;5.20;99.90
4058;DHT22;2044;48.692;9.020;2022-11-20T18:15:28;5.20;99.90
4058;DHT22;2044;48.692;9.020;2022-11-20T18:20:22;5.20;90.30
4058;DHT22;2044;48.692;9.020;2022-11-20T18:25:16;5.20;1.00
4058;DHT22;2044;48.692;9.020;2022-11-20T18:27:43;5.30;1.00
4058;DHT22;2044;48.692;9.020;2022-11-20T18:30:11;5.30;99.90
4058;DHT22;2044;48.692;9.020;2022-11-20T18:37:34;5.20;99.90
4058;DHT22;2044;48.692;9.020;2022-11-20T18:42:28;5.20;99.90
4058;DHT22;2044;48.692;9.020;2022-11-20T18:45:13;5.10;1.00
4058;DHT22;2044;48.692;9.020;2022-11-20T18:47:41;5.10;1.00
4058;DHT22;2044;48.692;9.020;2022-11-20T18:52:39;5.00;1.00
4058;DHT22;2044;48.692;9.020;2022-11-20T18:57:34;5.50;1.00
4058;DHT22;2044;48.692;9.020;2022-11-20T19:00:01;4.90;1.00
4058;DHT22;2044;48.692;9.020;2022-11-20T19:02:29;4.80;1.00
4058;DHT22;2044;48.692;9.020;2022-11-20T19:04:57;4.70;1.00
4058;DHT22;2044;48.692;9.020;2022-11-20T19:07:24;4.50;1.00
4058;DHT22;2044;48.692;9.020;2022-11-20T19:09:51;4.40;1.00
4058;DHT22;2044;48.692;9.020;2022-11-20T19:12:19;4.40;57.80
4058;DHT22;2044;48.692;9.020;2022-11-20T19:14:46;4.30;5.70
4058;DHT22;2044;48.692;9.020;2022-11-20T19:19:42;4.30;1.00
4058;DHT22;2044;48.692;9.020;2022-11-20T19:22:10;4.20;13.80
4058;DHT22;2044;48.692;9.020;2022-11-20T19:24:37;4.20;1.00
4058;DHT22;2044;48.692;9.020;2022-11-20T19:29:31;4.20;1.00
4058;DHT22;2044;48.692;9.020;2022-11-20T19:31:58;4.10;1.00
4058;DHT22;2044;48.692;9.020;2022-11-20T19:34:24;4.10;1.00
4058;DHT22;2044;48.692;9.020;2022-11-20T19:36:51;4.10;1.00
4058;DHT22;2044;48.692;9.020;2022-11-20T19:41:48;4.00;67.50
4058;DHT22;2044;48.692;9.020;2022-11-20T19:44:15;4.00;25.20
4058;DHT22;2044;48.692;9.020;2022-11-20T19:46:42;4.00;23.00
4058;DHT22;2044;48.692;9.020;2022-11-20T19:49:12;3.90;99.90
4058;DHT22;2044;48.692;9.020;2022-11-20T19:51:43;3.80;99.90
4058;DHT22;2044;48.692;9.020;2022-11-20T19:56:39;3.70;99.90
4058;DHT22;2044;48.692;9.020;2022-11-20T20:06:30;3.70;99.90
4058;DHT22;2044;48.692;9.020;2022-11-20T20:08:59;3.70;99.90
4058;DHT22;2044;48.692;9.020;2022-11-20T20:16:25;3.70;99.90
4058;DHT22;2044;48.692;9.020;2022-11-20T20:23:50;3.70;99.90
4058;DHT22;2044;48.692;9.020;2022-11-20T20:31:16;3.70;99.90
4058;DHT22;2044;48.692;9.020;2022-11-20T20:33:46;3.70;99.90
4058;DHT22;2044;48.692;9.020;2022-11-20T20:36:15;3.70;99.90
4058;DHT22;2044;48.692;9.020;2022-11-20T20:38:42;3.70;99.90
4058;DHT22;2044;48.692;9.020;2022-11-20T20:41:11;3.70;99.90
4058;DHT22;2044;48.692;9.020;2022-11-20T20:46:24;3.60;1.00
4058;DHT22;2044;48.692;9.020;2022-11-20T20:48:51;3.70;1.00
4058;DHT22;2044;48.692;9.020;2022-11-20T20:51:18;3.70;1.00
4058;DHT22;2044;48.692;9.020;2022-11-20T20:56:12;3.70;1.00
4058;DHT22;2044;48.692;9.020;2022-11-20T20:58:39;3.70;1.00
4058;DHT22;2044;48.692;9.020;2022-11-20T21:01:07;3.70;1.00
4058;DHT22;2044;48.692;9.020;2022-11-20T21:06:05;3.60;1.00
4058;DHT22;2044;48.692;9.020;2022-11-20T21:11:04;3.50;1.00
4058;DHT22;2044;48.692;9.020;2022-11-20T21:16:00;3.50;1.00
4058;DHT22;2044;48.692;9.020;2022-11-20T21:23:43;3.50;1.00
4058;DHT22;2044;48.692;9.020;2022-11-20T21:31:11;3.40;16.60
4058;DHT22;2044;48.692;9.020;2022-11-20T21:33:41;3.30;74.70
4058;DHT22;2044;48.692;9.020;2022-11-20T21:41:08;3.20;99.90
4058;DHT22;2044;48.692;9.020;2022-11-20T21:46:04;3.10;99.90
4058;DHT22;2044;48.692;9.020;2022-11-20T22:10:58;3.60;99.90
4058;DHT22;2044;48.692;9.020;2022-11-20T22:13:25;3.60;99.90
4058;DHT22;2044;48.692;9.020;2022-11-20T22:16:10;3.60;99.90
4058;DHT22;2044;48.692;9.020;2022-11-20T22:18:41;3.60;99.90
4058;DHT22;2044;48.692;9.020;2022-11-20T22:31:04;3.60;99.90
4058;DHT22;2044;48.692;9.020;2022-11-20T22:36:05;3.50;99.90
4058;DHT22;2044;48.692;9.020;2022-11-20T22:48:36;3.30;99.90
4058;DHT22;2044;48.692;9.020;2022-11-20T22:51:04;3.40;99.90
4058;DHT22;2044;48.692;9.020;2022-11-20T22:53:32;3.30;99.90
4058;DHT22;2044;48.692;9.020;2022-11-20T22:55:58;3.40;99.90
4058;DHT22;2044;48.692;9.020;2022-11-20T22:58:27;3.30;99.90
4058;DHT22;2044;48.692;9.020;2022-11-20T23:08:29;3.20;99.90
4058;DHT22;2044;48.692;9.020;2022-11-20T23:16:00;3.20;99.90
4058;DHT22;2044;48.692;9.020;2022-11-20T23:33:36;3.30;99.90
4058;DHT22;2044;48.692;9.020;2022-11-20T23:36:05;3.40;99.90
4058;DHT22;2044;48.692;9.020;2022-11-20T23:48:35;3.50;99.90
4058;DHT22;2044;48.692;9.020;2022-11-20T23:56:10;3.40;99.90
